Terminal Aerodrome Forecast
Issued by NWS

Home | Current Version | Previous Version | Text Only | Print | Product List | Glossary On
Versions: 1 2 3 4 5 6 7 8 9 10 11 12 13 14 15 16 17 18 19 20 21 22 23 24 25 26
000
FTUS44 KMOB 281953 AAA
TAFBFM
TAF AMD
KBFM 281953Z 2820/2918 14010KT P6SM VCTS SCT015CB OVC150
      TEMPO 2821/2824 4SM TSRA BKN015CB
     FM290300 10009KT P6SM VCSH BKN025 OVC150
     FM291200 10006KT P6SM -TSRA OVC015CB=

USA.gov is the U.S. government's official web portal to all federal, state and local government web resources and services.